sensor_id;sensor_type;location;lat;lon;timestamp;P1;durP1;ratioP1;P2;durP2;ratioP2
27223;SDS011;14965;50.660;13.226;2022-10-10T00:01:35;6.93;;;3.13;;
27223;SDS011;14965;50.660;13.226;2022-10-10T00:04:02;7.13;;;2.70;;
27223;SDS011;14965;50.660;13.226;2022-10-10T00:06:29;8.45;;;2.80;;
27223;SDS011;14965;50.660;13.226;2022-10-10T00:08:56;8.13;;;3.28;;
27223;SDS011;14965;50.660;13.226;2022-10-10T00:11:22;5.22;;;2.60;;
27223;SDS011;14965;50.660;13.226;2022-10-10T00:13:49;5.30;;;2.22;;
27223;SDS011;14965;50.660;13.226;2022-10-10T00:16:17;5.85;;;2.28;;
27223;SDS011;14965;50.660;13.226;2022-10-10T00:18:45;6.28;;;2.90;;
27223;SDS011;14965;50.660;13.226;2022-10-10T00:21:12;6.65;;;2.30;;
27223;SDS011;14965;50.660;13.226;2022-10-10T00:23:38;10.40;;;2.53;;
27223;SDS011;14965;50.660;13.226;2022-10-10T00:26:05;6.50;;;2.20;;
27223;SDS011;14965;50.660;13.226;2022-10-10T00:28:31;10.10;;;2.55;;
27223;SDS011;14965;50.660;13.226;2022-10-10T00:30:57;6.65;;;2.67;;
27223;SDS011;14965;50.660;13.226;2022-10-10T00:33:25;7.55;;;2.55;;
27223;SDS011;14965;50.660;13.226;2022-10-10T00:35:51;9.25;;;2.80;;
27223;SDS011;14965;50.660;13.226;2022-10-10T00:38:17;8.00;;;2.40;;
27223;SDS011;14965;50.660;13.226;2022-10-10T00:40:44;5.40;;;2.17;;
27223;SDS011;14965;50.660;13.226;2022-10-10T00:43:13;7.70;;;2.55;;
27223;SDS011;14965;50.660;13.226;2022-10-10T00:45:41;7.37;;;2.40;;
27223;SDS011;14965;50.660;13.226;2022-10-10T00:48:11;8.32;;;2.55;;
27223;SDS011;14965;50.660;13.226;2022-10-10T00:50:42;10.80;;;2.55;;
27223;SDS011;14965;50.660;13.226;2022-10-10T00:53:15;4.38;;;2.05;;
27223;SDS011;14965;50.660;13.226;2022-10-10T00:55:46;5.95;;;2.33;;
27223;SDS011;14965;50.660;13.226;2022-10-10T00:58:13;6.28;;;2.38;;
27223;SDS011;14965;50.660;13.226;2022-10-10T01:00:41;8.90;;;2.97;;
27223;SDS011;14965;50.660;13.226;2022-10-10T01:03:07;9.82;;;2.70;;
27223;SDS011;14965;50.660;13.226;2022-10-10T01:05:33;9.20;;;2.83;;
27223;SDS011;14965;50.660;13.226;2022-10-10T01:08:02;7.68;;;2.50;;
27223;SDS011;14965;50.660;13.226;2022-10-10T01:10:32;8.13;;;3.17;;
27223;SDS011;14965;50.660;13.226;2022-10-10T01:13:12;11.85;;;3.45;;
27223;SDS011;14965;50.660;13.226;2022-10-10T01:15:52;8.07;;;2.80;;
27223;SDS011;14965;50.660;13.226;2022-10-10T01:18:27;8.98;;;2.90;;
27223;SDS011;14965;50.660;13.226;2022-10-10T01:21:09;10.00;;;3.20;;
27223;SDS011;14965;50.660;13.226;2022-10-10T01:27:20;7.30;;;2.95;;
27223;SDS011;14965;50.660;13.226;2022-10-10T01:29:55;9.25;;;3.13;;
27223;SDS011;14965;50.660;13.226;2022-10-10T01:32:32;6.95;;;3.25;;
27223;SDS011;14965;50.660;13.226;2022-10-10T01:35:06;12.77;;;4.00;;
27223;SDS011;14965;50.660;13.226;2022-10-10T01:37:58;8.18;;;3.10;;
27223;SDS011;14965;50.660;13.226;2022-10-10T01:40:38;9.75;;;3.20;;
27223;SDS011;14965;50.660;13.226;2022-10-10T01:43:14;11.05;;;3.47;;
27223;SDS011;14965;50.660;13.226;2022-10-10T01:45:47;10.35;;;3.42;;
27223;SDS011;14965;50.660;13.226;2022-10-10T01:48:16;9.60;;;3.55;;
27223;SDS011;14965;50.660;13.226;2022-10-10T01:50:55;12.85;;;3.67;;
27223;SDS011;14965;50.660;13.226;2022-10-10T01:53:45;13.85;;;3.80;;
27223;SDS011;14965;50.660;13.226;2022-10-10T01:56:28;10.15;;;3.63;;
27223;SDS011;14965;50.660;13.226;2022-10-10T01:59:08;9.85;;;3.95;;
27223;SDS011;14965;50.660;13.226;2022-10-10T02:01:55;11.55;;;3.80;;
27223;SDS011;14965;50.660;13.226;2022-10-10T02:04:31;10.35;;;3.45;;
27223;SDS011;14965;50.660;13.226;2022-10-10T02:07:08;9.50;;;4.07;;
27223;SDS011;14965;50.660;13.226;2022-10-10T02:09:41;13.25;;;4.18;;
27223;SDS011;14965;50.660;13.226;2022-10-10T02:12:11;8.25;;;3.85;;
27223;SDS011;14965;50.660;13.226;2022-10-10T02:14:39;12.77;;;3.97;;
27223;SDS011;14965;50.660;13.226;2022-10-10T02:17:11;7.95;;;4.10;;
27223;SDS011;14965;50.660;13.226;2022-10-10T02:19:41;13.02;;;3.80;;
27223;SDS011;14965;50.660;13.226;2022-10-10T02:22:13;7.30;;;3.92;;
27223;SDS011;14965;50.660;13.226;2022-10-10T02:24:40;8.65;;;3.90;;
27223;SDS011;14965;50.660;13.226;2022-10-10T02:27:08;9.48;;;3.65;;
27223;SDS011;14965;50.660;13.226;2022-10-10T02:29:41;8.25;;;4.03;;
27223;SDS011;14965;50.660;13.226;2022-10-10T02:32:13;10.60;;;3.63;;
27223;SDS011;14965;50.660;13.226;2022-10-10T02:34:48;10.10;;;3.67;;
27223;SDS011;14965;50.660;13.226;2022-10-10T02:37:20;8.02;;;3.53;;
27223;SDS011;14965;50.660;13.226;2022-10-10T02:39:50;12.37;;;4.23;;
27223;SDS011;14965;50.660;13.226;2022-10-10T02:42:23;12.10;;;3.78;;
27223;SDS011;14965;50.660;13.226;2022-10-10T02:44:52;6.22;;;3.75;;
27223;SDS011;14965;50.660;13.226;2022-10-10T02:47:21;8.85;;;3.85;;
27223;SDS011;14965;50.660;13.226;2022-10-10T02:49:47;8.40;;;3.58;;
27223;SDS011;14965;50.660;13.226;2022-10-10T02:52:14;8.98;;;3.63;;
27223;SDS011;14965;50.660;13.226;2022-10-10T02:54:41;8.05;;;3.63;;
27223;SDS011;14965;50.660;13.226;2022-10-10T02:57:08;10.40;;;4.68;;
27223;SDS011;14965;50.660;13.226;2022-10-10T02:59:34;10.20;;;3.58;;
27223;SDS011;14965;50.660;13.226;2022-10-10T03:02:00;9.10;;;3.63;;
27223;SDS011;14965;50.660;13.226;2022-10-10T03:04:27;8.73;;;3.40;;
27223;SDS011;14965;50.660;13.226;2022-10-10T03:06:53;7.97;;;3.00;;
27223;SDS011;14965;50.660;13.226;2022-10-10T03:09:20;8.50;;;3.33;;
27223;SDS011;14965;50.660;13.226;2022-10-10T03:11:46;7.22;;;3.30;;
27223;SDS011;14965;50.660;13.226;2022-10-10T03:14:12;8.55;;;3.30;;
27223;SDS011;14965;50.660;13.226;2022-10-10T03:16:38;6.95;;;3.10;;
27223;SDS011;14965;50.660;13.226;2022-10-10T03:19:04;11.27;;;3.30;;
27223;SDS011;14965;50.660;13.226;2022-10-10T03:21:31;8.05;;;2.78;;
27223;SDS011;14965;50.660;13.226;2022-10-10T03:23:58;6.10;;;3.20;;
27223;SDS011;14965;50.660;13.226;2022-10-10T03:26:24;7.25;;;3.13;;
27223;SDS011;14965;50.660;13.226;2022-10-10T03:28:50;8.05;;;3.00;;
27223;SDS011;14965;50.660;13.226;2022-10-10T03:31:16;9.38;;;3.20;;
27223;SDS011;14965;50.660;13.226;2022-10-10T03:33:42;6.82;;;3.13;;
27223;SDS011;14965;50.660;13.226;2022-10-10T03:36:08;6.20;;;2.92;;
27223;SDS011;14965;50.660;13.226;2022-10-10T03:38:37;9.23;;;3.05;;
27223;SDS011;14965;50.660;13.226;2022-10-10T03:43:30;9.50;;;3.20;;
27223;SDS011;14965;50.660;13.226;2022-10-10T03:45:56;7.85;;;2.83;;
27223;SDS011;14965;50.660;13.226;2022-10-10T03:48:22;7.13;;;3.15;;
27223;SDS011;14965;50.660;13.226;2022-10-10T03:50:48;7.80;;;3.10;;
27223;SDS011;14965;50.660;13.226;2022-10-10T03:53:14;8.65;;;2.47;;
27223;SDS011;14965;50.660;13.226;2022-10-10T03:55:41;8.18;;;3.20;;
27223;SDS011;14965;50.660;13.226;2022-10-10T03:58:07;5.25;;;2.65;;
27223;SDS011;14965;50.660;13.226;2022-10-10T04:00:34;5.47;;;2.60;;
27223;SDS011;14965;50.660;13.226;2022-10-10T04:03:00;6.90;;;2.80;;
27223;SDS011;14965;50.660;13.226;2022-10-10T04:05:26;5.80;;;3.10;;
27223;SDS011;14965;50.660;13.226;2022-10-10T04:07:52;5.45;;;2.75;;
27223;SDS011;14965;50.660;13.226;2022-10-10T04:10:18;7.60;;;3.00;;
27223;SDS011;14965;50.660;13.226;2022-10-10T04:12:46;10.25;;;2.97;;
27223;SDS011;14965;50.660;13.226;2022-10-10T04:15:11;5.70;;;2.78;;
27223;SDS011;14965;50.660;13.226;2022-10-10T04:17:37;8.77;;;2.95;;
27223;SDS011;14965;50.660;13.226;2022-10-10T04:20:04;9.02;;;3.35;;
27223;SDS011;14965;50.660;13.226;2022-10-10T04:22:30;10.85;;;3.35;;
27223;SDS011;14965;50.660;13.226;2022-10-10T04:24:56;5.55;;;3.17;;
27223;SDS011;14965;50.660;13.226;2022-10-10T04:27:25;10.30;;;3.40;;
27223;SDS011;14965;50.660;13.226;2022-10-10T04:29:53;10.27;;;3.38;;
27223;SDS011;14965;50.660;13.226;2022-10-10T04:32:18;8.60;;;3.30;;
27223;SDS011;14965;50.660;13.226;2022-10-10T04:34:44;10.50;;;3.35;;
27223;SDS011;14965;50.660;13.226;2022-10-10T04:37:10;9.40;;;3.63;;
27223;SDS011;14965;50.660;13.226;2022-10-10T04:39:36;7.75;;;3.38;;
27223;SDS011;14965;50.660;13.226;2022-10-10T04:42:03;10.85;;;3.40;;
27223;SDS011;14965;50.660;13.226;2022-10-10T04:44:29;7.78;;;3.28;;
27223;SDS011;14965;50.660;13.226;2022-10-10T04:46:56;10.05;;;3.40;;
27223;SDS011;14965;50.660;13.226;2022-10-10T04:49:23;7.90;;;3.30;;
27223;SDS011;14965;50.660;13.226;2022-10-10T04:51:49;11.88;;;3.50;;
27223;SDS011;14965;50.660;13.226;2022-10-10T04:54:15;8.77;;;4.03;;
27223;SDS011;14965;50.660;13.226;2022-10-10T04:56:41;10.07;;;3.83;;
27223;SDS011;14965;50.660;13.226;2022-10-10T04:59:07;12.07;;;3.78;;
27223;SDS011;14965;50.660;13.226;2022-10-10T05:01:33;13.20;;;4.00;;
27223;SDS011;14965;50.660;13.226;2022-10-10T05:04:01;7.72;;;3.70;;
27223;SDS011;14965;50.660;13.226;2022-10-10T05:06:28;10.20;;;4.23;;
27223;SDS011;14965;50.660;13.226;2022-10-10T05:08:54;8.25;;;4.40;;
27223;SDS011;14965;50.660;13.226;2022-10-10T05:11:20;9.63;;;4.30;;
27223;SDS011;14965;50.660;13.226;2022-10-10T05:13:46;8.50;;;4.10;;
27223;SDS011;14965;50.660;13.226;2022-10-10T05:16:12;12.18;;;4.90;;
27223;SDS011;14965;50.660;13.226;2022-10-10T05:18:38;8.73;;;4.28;;
27223;SDS011;14965;50.660;13.226;2022-10-10T05:21:05;6.85;;;3.97;;
27223;SDS011;14965;50.660;13.226;2022-10-10T05:23:31;11.75;;;3.92;;
27223;SDS011;14965;50.660;13.226;2022-10-10T05:25:57;10.07;;;4.32;;
27223;SDS011;14965;50.660;13.226;2022-10-10T05:28:23;11.88;;;4.25;;
27223;SDS011;14965;50.660;13.226;2022-10-10T05:30:49;7.28;;;3.92;;
27223;SDS011;14965;50.660;13.226;2022-10-10T05:33:16;10.43;;;3.80;;
27223;SDS011;14965;50.660;13.226;2022-10-10T05:35:42;10.10;;;4.38;;
27223;SDS011;14965;50.660;13.226;2022-10-10T05:38:10;8.57;;;4.35;;
27223;SDS011;14965;50.660;13.226;2022-10-10T05:40:37;8.55;;;4.40;;
27223;SDS011;14965;50.660;13.226;2022-10-10T05:43:04;10.27;;;4.22;;
27223;SDS011;14965;50.660;13.226;2022-10-10T05:45:30;10.90;;;4.60;;
27223;SDS011;14965;50.660;13.226;2022-10-10T05:47:56;9.55;;;4.07;;
27223;SDS011;14965;50.660;13.226;2022-10-10T05:50:24;8.80;;;4.15;;
27223;SDS011;14965;50.660;13.226;2022-10-10T05:52:57;12.27;;;4.72;;
27223;SDS011;14965;50.660;13.226;2022-10-10T05:55:24;10.00;;;4.60;;
27223;SDS011;14965;50.660;13.226;2022-10-10T05:57:50;10.80;;;4.53;;
27223;SDS011;14965;50.660;13.226;2022-10-10T06:00:17;10.68;;;4.50;;
27223;SDS011;14965;50.660;13.226;2022-10-10T06:02:43;10.27;;;4.63;;
27223;SDS011;14965;50.660;13.226;2022-10-10T06:05:09;10.60;;;4.55;;
27223;SDS011;14965;50.660;13.226;2022-10-10T06:07:35;9.10;;;4.50;;
27223;SDS011;14965;50.660;13.226;2022-10-10T06:10:01;11.23;;;5.00;;
27223;SDS011;14965;50.660;13.226;2022-10-10T06:12:29;9.95;;;4.13;;
27223;SDS011;14965;50.660;13.226;2022-10-10T06:14:55;10.82;;;4.47;;
27223;SDS011;14965;50.660;13.226;2022-10-10T06:17:21;8.48;;;4.78;;
27223;SDS011;14965;50.660;13.226;2022-10-10T06:19:47;9.88;;;4.60;;
27223;SDS011;14965;50.660;13.226;2022-10-10T06:22:13;8.10;;;4.72;;
27223;SDS011;14965;50.660;13.226;2022-10-10T06:24:39;10.73;;;4.97;;
27223;SDS011;14965;50.660;13.226;2022-10-10T06:27:08;9.48;;;4.97;;
27223;SDS011;14965;50.660;13.226;2022-10-10T06:41:01;8.20;;;4.90;;
27223;SDS011;14965;50.660;13.226;2022-10-10T06:43:29;12.45;;;5.50;;
27223;SDS011;14965;50.660;13.226;2022-10-10T06:45:57;9.88;;;5.20;;
27223;SDS011;14965;50.660;13.226;2022-10-10T06:48:24;12.87;;;5.70;;
27223;SDS011;14965;50.660;13.226;2022-10-10T06:50:54;10.02;;;5.50;;
27223;SDS011;14965;50.660;13.226;2022-10-10T06:53:22;11.13;;;6.15;;
27223;SDS011;14965;50.660;13.226;2022-10-10T06:55:48;9.88;;;5.47;;
27223;SDS011;14965;50.660;13.226;2022-10-10T06:58:20;12.98;;;6.25;;
27223;SDS011;14965;50.660;13.226;2022-10-10T07:00:50;16.33;;;5.93;;
27223;SDS011;14965;50.660;13.226;2022-10-10T07:03:17;15.50;;;6.05;;
27223;SDS011;14965;50.660;13.226;2022-10-10T07:05:47;9.48;;;5.57;;
27223;SDS011;14965;50.660;13.226;2022-10-10T07:08:14;10.10;;;6.03;;
27223;SDS011;14965;50.660;13.226;2022-10-10T07:10:40;11.57;;;6.40;;
27223;SDS011;14965;50.660;13.226;2022-10-10T07:13:06;10.68;;;5.55;;
27223;SDS011;14965;50.660;13.226;2022-10-10T07:15:34;15.55;;;6.30;;
27223;SDS011;14965;50.660;13.226;2022-10-10T07:18:00;12.82;;;6.60;;
27223;SDS011;14965;50.660;13.226;2022-10-10T07:20:27;11.35;;;5.80;;
27223;SDS011;14965;50.660;13.226;2022-10-10T07:22:53;11.30;;;6.18;;
27223;SDS011;14965;50.660;13.226;2022-10-10T07:25:19;11.73;;;5.80;;
27223;SDS011;14965;50.660;13.226;2022-10-10T07:27:45;11.85;;;6.13;;
27223;SDS011;14965;50.660;13.226;2022-10-10T07:30:11;13.05;;;5.80;;
27223;SDS011;14965;50.660;13.226;2022-10-10T07:32:39;10.35;;;5.90;;
27223;SDS011;14965;50.660;13.226;2022-10-10T07:35:05;12.45;;;5.47;;
27223;SDS011;14965;50.660;13.226;2022-10-10T07:37:32;10.98;;;5.55;;
27223;SDS011;14965;50.660;13.226;2022-10-10T07:39:58;10.05;;;5.72;;
27223;SDS011;14965;50.660;13.226;2022-10-10T07:42:24;10.05;;;5.53;;
27223;SDS011;14965;50.660;13.226;2022-10-10T07:44:51;12.55;;;5.47;;
27223;SDS011;14965;50.660;13.226;2022-10-10T07:47:17;9.45;;;5.38;;
27223;SDS011;14965;50.660;13.226;2022-10-10T07:49:45;13.45;;;5.72;;
27223;SDS011;14965;50.660;13.226;2022-10-10T07:52:11;11.10;;;5.50;;
27223;SDS011;14965;50.660;13.226;2022-10-10T07:54:37;11.23;;;5.22;;
27223;SDS011;14965;50.660;13.226;2022-10-10T07:57:22;8.77;;;4.65;;
27223;SDS011;14965;50.660;13.226;2022-10-10T07:59:49;12.60;;;4.85;;
27223;SDS011;14965;50.660;13.226;2022-10-10T08:02:15;12.00;;;4.82;;
27223;SDS011;14965;50.660;13.226;2022-10-10T08:04:41;9.43;;;4.90;;
27223;SDS011;14965;50.660;13.226;2022-10-10T08:07:08;12.05;;;4.88;;
27223;SDS011;14965;50.660;13.226;2022-10-10T08:09:34;9.30;;;5.10;;
27223;SDS011;14965;50.660;13.226;2022-10-10T08:12:00;8.88;;;4.70;;
27223;SDS011;14965;50.660;13.226;2022-10-10T08:14:26;13.07;;;5.30;;
27223;SDS011;14965;50.660;13.226;2022-10-10T08:16:52;11.30;;;4.80;;
27223;SDS011;14965;50.660;13.226;2022-10-10T08:19:30;11.05;;;4.20;;
27223;SDS011;14965;50.660;13.226;2022-10-10T08:21:56;9.32;;;4.50;;
27223;SDS011;14965;50.660;13.226;2022-10-10T08:24:23;10.60;;;4.28;;
27223;SDS011;14965;50.660;13.226;2022-10-10T08:26:49;7.70;;;4.10;;
27223;SDS011;14965;50.660;13.226;2022-10-10T08:29:15;8.00;;;4.25;;
27223;SDS011;14965;50.660;13.226;2022-10-10T08:31:42;16.33;;;8.68;;
27223;SDS011;14965;50.660;13.226;2022-10-10T08:34:08;13.20;;;5.38;;
27223;SDS011;14965;50.660;13.226;2022-10-10T08:36:34;7.93;;;4.45;;
27223;SDS011;14965;50.660;13.226;2022-10-10T08:39:01;10.60;;;4.82;;
27223;SDS011;14965;50.660;13.226;2022-10-10T08:41:32;11.35;;;4.30;;
27223;SDS011;14965;50.660;13.226;2022-10-10T08:44:09;8.15;;;3.65;;
27223;SDS011;14965;50.660;13.226;2022-10-10T08:46:45;7.00;;;4.13;;
27223;SDS011;14965;50.660;13.226;2022-10-10T08:49:18;10.93;;;4.32;;
27223;SDS011;14965;50.660;13.226;2022-10-10T08:51:53;8.43;;;4.22;;
27223;SDS011;14965;50.660;13.226;2022-10-10T08:54:28;7.88;;;3.45;;
27223;SDS011;14965;50.660;13.226;2022-10-10T08:56:58;8.07;;;4.15;;
27223;SDS011;14965;50.660;13.226;2022-10-10T08:59:31;10.75;;;3.63;;
27223;SDS011;14965;50.660;13.226;2022-10-10T09:02:05;9.73;;;4.00;;
27223;SDS011;14965;50.660;13.226;2022-10-10T09:04:58;11.77;;;3.88;;
27223;SDS011;14965;50.660;13.226;2022-10-10T09:07:27;9.43;;;3.88;;
27223;SDS011;14965;50.660;13.226;2022-10-10T09:10:17;9.00;;;3.83;;
27223;SDS011;14965;50.660;13.226;2022-10-10T09:12:58;7.95;;;3.92;;
27223;SDS011;14965;50.660;13.226;2022-10-10T09:15:40;11.30;;;4.10;;
27223;SDS011;14965;50.660;13.226;2022-10-10T09:18:23;9.15;;;3.78;;
27223;SDS011;14965;50.660;13.226;2022-10-10T09:21:15;7.72;;;3.60;;
27223;SDS011;14965;50.660;13.226;2022-10-10T09:23:48;6.43;;;3.53;;
27223;SDS011;14965;50.660;13.226;2022-10-10T09:26:22;10.25;;;3.60;;
27223;SDS011;14965;50.660;13.226;2022-10-10T09:28:56;12.27;;;5.03;;
27223;SDS011;14965;50.660;13.226;2022-10-10T09:31:31;8.30;;;4.00;;
27223;SDS011;14965;50.660;13.226;2022-10-10T09:34:02;10.13;;;3.83;;
27223;SDS011;14965;50.660;13.226;2022-10-10T09:36:36;13.65;;;3.70;;
27223;SDS011;14965;50.660;13.226;2022-10-10T09:39:03;8.93;;;3.67;;
27223;SDS011;14965;50.660;13.226;2022-10-10T09:41:44;8.63;;;3.60;;
27223;SDS011;14965;50.660;13.226;2022-10-10T09:44:19;6.43;;;3.20;;
27223;SDS011;14965;50.660;13.226;2022-10-10T09:46:46;8.32;;;3.83;;
27223;SDS011;14965;50.660;13.226;2022-10-10T09:49:13;7.60;;;3.30;;
27223;SDS011;14965;50.660;13.226;2022-10-10T09:51:40;7.20;;;3.65;;
27223;SDS011;14965;50.660;13.226;2022-10-10T09:54:07;8.38;;;3.85;;
27223;SDS011;14965;50.660;13.226;2022-10-10T09:56:37;9.15;;;3.60;;
27223;SDS011;14965;50.660;13.226;2022-10-10T10:02:07;10.63;;;3.88;;
27223;SDS011;14965;50.660;13.226;2022-10-10T10:07:16;7.53;;;3.28;;
27223;SDS011;14965;50.660;13.226;2022-10-10T10:09:50;7.93;;;3.42;;
27223;SDS011;14965;50.660;13.226;2022-10-10T10:12:21;6.40;;;3.40;;
27223;SDS011;14965;50.660;13.226;2022-10-10T10:14:51;13.07;;;3.50;;
27223;SDS011;14965;50.660;13.226;2022-10-10T10:17:23;7.38;;;3.40;;
27223;SDS011;14965;50.660;13.226;2022-10-10T10:19:49;7.25;;;3.05;;
27223;SDS011;14965;50.660;13.226;2022-10-10T10:22:29;9.00;;;3.45;;
27223;SDS011;14965;50.660;13.226;2022-10-10T10:24:58;11.93;;;3.72;;
27223;SDS011;14965;50.660;13.226;2022-10-10T10:27:45;11.80;;;3.70;;
27223;SDS011;14965;50.660;13.226;2022-10-10T10:30:12;7.25;;;3.45;;
27223;SDS011;14965;50.660;13.226;2022-10-10T10:32:51;7.47;;;2.95;;
27223;SDS011;14965;50.660;13.226;2022-10-10T10:35:26;8.05;;;3.03;;
27223;SDS011;14965;50.660;13.226;2022-10-10T10:38:06;12.05;;;3.08;;
27223;SDS011;14965;50.660;13.226;2022-10-10T10:40:52;6.93;;;3.10;;
27223;SDS011;14965;50.660;13.226;2022-10-10T10:46:32;6.10;;;3.05;;
27223;SDS011;14965;50.660;13.226;2022-10-10T10:49:15;12.50;;;3.28;;
27223;SDS011;14965;50.660;13.226;2022-10-10T10:52:12;9.82;;;3.30;;
27223;SDS011;14965;50.660;13.226;2022-10-10T10:55:12;6.55;;;3.22;;
27223;SDS011;14965;50.660;13.226;2022-10-10T10:58:06;7.18;;;2.90;;
27223;SDS011;14965;50.660;13.226;2022-10-10T11:00:54;7.43;;;2.95;;
27223;SDS011;14965;50.660;13.226;2022-10-10T11:03:29;6.63;;;2.67;;
27223;SDS011;14965;50.660;13.226;2022-10-10T11:06:16;5.53;;;2.55;;
27223;SDS011;14965;50.660;13.226;2022-10-10T11:09:01;6.70;;;2.60;;
27223;SDS011;14965;50.660;13.226;2022-10-10T11:11:39;5.57;;;2.70;;
27223;SDS011;14965;50.660;13.226;2022-10-10T11:14:24;9.85;;;2.60;;
27223;SDS011;14965;50.660;13.226;2022-10-10T11:17:11;6.05;;;2.38;;
27223;SDS011;14965;50.660;13.226;2022-10-10T11:19:46;5.63;;;2.47;;
27223;SDS011;14965;50.660;13.226;2022-10-10T11:22:20;6.00;;;2.78;;
27223;SDS011;14965;50.660;13.226;2022-10-10T11:24:53;7.90;;;2.83;;
27223;SDS011;14965;50.660;13.226;2022-10-10T11:27:28;7.03;;;3.22;;
27223;SDS011;14965;50.660;13.226;2022-10-10T11:30:04;9.27;;;4.00;;
27223;SDS011;14965;50.660;13.226;2022-10-10T11:32:42;5.88;;;3.22;;
27223;SDS011;14965;50.660;13.226;2022-10-10T11:35:32;7.90;;;3.40;;
27223;SDS011;14965;50.660;13.226;2022-10-10T11:38:04;9.45;;;2.83;;
27223;SDS011;14965;50.660;13.226;2022-10-10T11:40:41;6.65;;;2.70;;
27223;SDS011;14965;50.660;13.226;2022-10-10T11:45:53;9.93;;;4.38;;
27223;SDS011;14965;50.660;13.226;2022-10-10T11:48:28;4.43;;;2.80;;
27223;SDS011;14965;50.660;13.226;2022-10-10T11:51:13;6.15;;;2.80;;
27223;SDS011;14965;50.660;13.226;2022-10-10T11:53:52;4.45;;;2.40;;
27223;SDS011;14965;50.660;13.226;2022-10-10T11:56:27;5.88;;;2.80;;
27223;SDS011;14965;50.660;13.226;2022-10-10T11:59:00;7.25;;;3.70;;
27223;SDS011;14965;50.660;13.226;2022-10-10T12:01:37;17.67;;;8.73;;
27223;SDS011;14965;50.660;13.226;2022-10-10T12:04:10;8.40;;;4.38;;
27223;SDS011;14965;50.660;13.226;2022-10-10T12:06:38;11.40;;;4.60;;
27223;SDS011;14965;50.660;13.226;2022-10-10T12:09:12;8.43;;;3.05;;
27223;SDS011;14965;50.660;13.226;2022-10-10T12:11:46;9.75;;;6.25;;
27223;SDS011;14965;50.660;13.226;2022-10-10T12:14:19;9.52;;;4.60;;
27223;SDS011;14965;50.660;13.226;2022-10-10T12:16:49;5.38;;;2.60;;
27223;SDS011;14965;50.660;13.226;2022-10-10T12:19:17;9.05;;;5.78;;
27223;SDS011;14965;50.660;13.226;2022-10-10T12:24:22;9.43;;;4.50;;
27223;SDS011;14965;50.660;13.226;2022-10-10T12:27:14;8.20;;;3.43;;
27223;SDS011;14965;50.660;13.226;2022-10-10T12:30:17;8.65;;;2.75;;
27223;SDS011;14965;50.660;13.226;2022-10-10T12:32:48;8.30;;;2.75;;
27223;SDS011;14965;50.660;13.226;2022-10-10T12:35:28;10.77;;;4.50;;
27223;SDS011;14965;50.660;13.226;2022-10-10T12:38:09;5.00;;;2.78;;
27223;SDS011;14965;50.660;13.226;2022-10-10T12:43:39;9.65;;;2.67;;
27223;SDS011;14965;50.660;13.226;2022-10-10T12:46:16;6.70;;;2.95;;
27223;SDS011;14965;50.660;13.226;2022-10-10T12:48:56;8.68;;;2.22;;
27223;SDS011;14965;50.660;13.226;2022-10-10T12:51:30;9.75;;;2.83;;
27223;SDS011;14965;50.660;13.226;2022-10-10T12:54:02;5.60;;;2.30;;
27223;SDS011;14965;50.660;13.226;2022-10-10T12:56:35;8.85;;;2.08;;
27223;SDS011;14965;50.660;13.226;2022-10-10T12:59:05;7.22;;;2.15;;
27223;SDS011;14965;50.660;13.226;2022-10-10T13:01:43;4.40;;;2.20;;
27223;SDS011;14965;50.660;13.226;2022-10-10T13:04:16;7.68;;;2.40;;
27223;SDS011;14965;50.660;13.226;2022-10-10T13:06:43;7.75;;;2.05;;
27223;SDS011;14965;50.660;13.226;2022-10-10T13:09:15;8.75;;;2.33;;
27223;SDS011;14965;50.660;13.226;2022-10-10T13:11:49;6.68;;;1.95;;
27223;SDS011;14965;50.660;13.226;2022-10-10T13:14:17;7.80;;;2.30;;
27223;SDS011;14965;50.660;13.226;2022-10-10T13:16:43;7.10;;;2.10;;
27223;SDS011;14965;50.660;13.226;2022-10-10T13:19:14;8.13;;;2.20;;
27223;SDS011;14965;50.660;13.226;2022-10-10T13:21:43;6.95;;;2.30;;
27223;SDS011;14965;50.660;13.226;2022-10-10T13:24:10;7.88;;;2.22;;
27223;SDS011;14965;50.660;13.226;2022-10-10T13:26:42;6.95;;;2.50;;
27223;SDS011;14965;50.660;13.226;2022-10-10T13:29:15;11.95;;;2.83;;
27223;SDS011;14965;50.660;13.226;2022-10-10T13:31:53;9.13;;;2.75;;
27223;SDS011;14965;50.660;13.226;2022-10-10T13:34:25;6.97;;;2.50;;
27223;SDS011;14965;50.660;13.226;2022-10-10T13:36:56;8.23;;;3.00;;
27223;SDS011;14965;50.660;13.226;2022-10-10T13:39:26;5.53;;;2.30;;
27223;SDS011;14965;50.660;13.226;2022-10-10T13:41:55;7.38;;;2.80;;
27223;SDS011;14965;50.660;13.226;2022-10-10T13:44:23;9.35;;;4.70;;
27223;SDS011;14965;50.660;13.226;2022-10-10T13:46:54;10.07;;;2.75;;
27223;SDS011;14965;50.660;13.226;2022-10-10T13:49:22;9.45;;;2.70;;
27223;SDS011;14965;50.660;13.226;2022-10-10T13:52:01;11.70;;;2.80;;
27223;SDS011;14965;50.660;13.226;2022-10-10T13:54:41;7.55;;;3.20;;
27223;SDS011;14965;50.660;13.226;2022-10-10T13:57:11;7.05;;;2.58;;
27223;SDS011;14965;50.660;13.226;2022-10-10T13:59:43;6.53;;;2.63;;
27223;SDS011;14965;50.660;13.226;2022-10-10T14:02:15;8.60;;;3.10;;
27223;SDS011;14965;50.660;13.226;2022-10-10T14:04:43;13.20;;;4.35;;
27223;SDS011;14965;50.660;13.226;2022-10-10T14:07:15;9.38;;;2.85;;
27223;SDS011;14965;50.660;13.226;2022-10-10T14:09:50;7.85;;;2.63;;
27223;SDS011;14965;50.660;13.226;2022-10-10T14:12:23;7.38;;;2.90;;
27223;SDS011;14965;50.660;13.226;2022-10-10T14:14:56;10.05;;;3.00;;
27223;SDS011;14965;50.660;13.226;2022-10-10T14:17:24;9.25;;;4.30;;
27223;SDS011;14965;50.660;13.226;2022-10-10T14:19:52;8.80;;;2.47;;
27223;SDS011;14965;50.660;13.226;2022-10-10T14:22:19;5.95;;;2.35;;
27223;SDS011;14965;50.660;13.226;2022-10-10T14:24:47;8.90;;;2.83;;
27223;SDS011;14965;50.660;13.226;2022-10-10T14:27:20;9.60;;;3.42;;
27223;SDS011;14965;50.660;13.226;2022-10-10T14:29:50;13.73;;;3.85;;
27223;SDS011;14965;50.660;13.226;2022-10-10T14:32:18;10.65;;;3.00;;
27223;SDS011;14965;50.660;13.226;2022-10-10T14:34:49;9.80;;;2.80;;
27223;SDS011;14965;50.660;13.226;2022-10-10T14:37:17;6.82;;;3.15;;
27223;SDS011;14965;50.660;13.226;2022-10-10T14:39:48;5.72;;;2.78;;
27223;SDS011;14965;50.660;13.226;2022-10-10T14:42:16;10.68;;;3.50;;
27223;SDS011;14965;50.660;13.226;2022-10-10T14:44:45;5.93;;;2.92;;
27223;SDS011;14965;50.660;13.226;2022-10-10T14:47:13;7.75;;;2.92;;
27223;SDS011;14965;50.660;13.226;2022-10-10T14:49:41;6.70;;;2.78;;
27223;SDS011;14965;50.660;13.226;2022-10-10T14:52:08;9.88;;;3.15;;
27223;SDS011;14965;50.660;13.226;2022-10-10T14:54:34;5.93;;;2.92;;
27223;SDS011;14965;50.660;13.226;2022-10-10T14:57:02;7.05;;;3.08;;
27223;SDS011;14965;50.660;13.226;2022-10-10T14:59:28;20.35;;;4.32;;
27223;SDS011;14965;50.660;13.226;2022-10-10T15:01:56;7.35;;;3.15;;
27223;SDS011;14965;50.660;13.226;2022-10-10T15:04:24;8.07;;;2.85;;
27223;SDS011;14965;50.660;13.226;2022-10-10T15:09:17;6.18;;;3.22;;
27223;SDS011;14965;50.660;13.226;2022-10-10T15:11:44;9.15;;;2.97;;
27223;SDS011;14965;50.660;13.226;2022-10-10T15:14:13;11.68;;;4.25;;
27223;SDS011;14965;50.660;13.226;2022-10-10T15:16:39;15.37;;;4.47;;
27223;SDS011;14965;50.660;13.226;2022-10-10T15:19:06;8.13;;;3.50;;
27223;SDS011;14965;50.660;13.226;2022-10-10T15:21:32;11.07;;;4.13;;
27223;SDS011;14965;50.660;13.226;2022-10-10T15:23:59;9.00;;;3.53;;
27223;SDS011;14965;50.660;13.226;2022-10-10T15:26:26;10.45;;;3.80;;
27223;SDS011;14965;50.660;13.226;2022-10-10T15:28:53;9.40;;;3.60;;